sensor_id;sensor_type;location;lat;lon;timestamp;temperature;humidity
18260;DHT22;9256;52.236;5.712;2023-03-26T00:01:14;7.50;99.90
18260;DHT22;9256;52.236;5.712;2023-03-26T00:03:43;7.40;99.90
18260;DHT22;9256;52.236;5.712;2023-03-26T00:06:12;7.40;99.90
18260;DHT22;9256;52.236;5.712;2023-03-26T00:08:42;7.40;99.90
18260;DHT22;9256;52.236;5.712;2023-03-26T00:11:11;7.40;99.90
18260;DHT22;9256;52.236;5.712;2023-03-26T00:13:39;7.40;99.90
18260;DHT22;9256;52.236;5.712;2023-03-26T00:16:08;7.40;99.90
18260;DHT22;9256;52.236;5.712;2023-03-26T00:18:35;7.30;99.90
18260;DHT22;9256;52.236;5.712;2023-03-26T00:21:07;7.30;99.90
18260;DHT22;9256;52.236;5.712;2023-03-26T00:23:35;7.30;99.90
18260;DHT22;9256;52.236;5.712;2023-03-26T00:26:04;7.30;99.90
18260;DHT22;9256;52.236;5.712;2023-03-26T00:28:35;7.30;99.90
18260;DHT22;9256;52.236;5.712;2023-03-26T00:31:06;7.20;99.90
18260;DHT22;9256;52.236;5.712;2023-03-26T00:33:33;7.20;99.90
18260;DHT22;9256;52.236;5.712;2023-03-26T00:36:06;7.20;99.90
18260;DHT22;9256;52.236;5.712;2023-03-26T00:38:35;7.20;99.90
18260;DHT22;9256;52.236;5.712;2023-03-26T00:41:04;7.20;99.90
18260;DHT22;9256;52.236;5.712;2023-03-26T00:43:33;7.20;99.90
18260;DHT22;9256;52.236;5.712;2023-03-26T00:46:01;7.20;99.90
18260;DHT22;9256;52.236;5.712;2023-03-26T00:48:28;7.30;99.90
18260;DHT22;9256;52.236;5.712;2023-03-26T00:50:56;7.30;99.90
18260;DHT22;9256;52.236;5.712;2023-03-26T00:53:25;7.20;99.90
18260;DHT22;9256;52.236;5.712;2023-03-26T00:55:52;7.30;99.90
18260;DHT22;9256;52.236;5.712;2023-03-26T00:58:24;7.20;99.90
18260;DHT22;9256;52.236;5.712;2023-03-26T01:00:54;7.20;99.90
18260;DHT22;9256;52.236;5.712;2023-03-26T01:03:23;7.10;99.90
18260;DHT22;9256;52.236;5.712;2023-03-26T01:05:51;7.10;99.90
18260;DHT22;9256;52.236;5.712;2023-03-26T01:08:25;7.10;99.90
18260;DHT22;9256;52.236;5.712;2023-03-26T01:10:55;7.10;99.90
18260;DHT22;9256;52.236;5.712;2023-03-26T01:13:30;7.10;99.90
18260;DHT22;9256;52.236;5.712;2023-03-26T01:15:59;7.10;99.90
18260;DHT22;9256;52.236;5.712;2023-03-26T01:18:28;7.00;99.90
18260;DHT22;9256;52.236;5.712;2023-03-26T01:20:59;7.00;99.90
18260;DHT22;9256;52.236;5.712;2023-03-26T01:23:40;7.00;99.90
18260;DHT22;9256;52.236;5.712;2023-03-26T01:26:20;7.00;99.90
18260;DHT22;9256;52.236;5.712;2023-03-26T01:28:51;7.00;99.90
18260;DHT22;9256;52.236;5.712;2023-03-26T01:31:26;7.00;99.90
18260;DHT22;9256;52.236;5.712;2023-03-26T01:33:58;7.00;99.90
18260;DHT22;9256;52.236;5.712;2023-03-26T01:36:36;7.00;99.90
18260;DHT22;9256;52.236;5.712;2023-03-26T01:39:07;6.90;99.90
18260;DHT22;9256;52.236;5.712;2023-03-26T01:41:41;6.80;99.90
18260;DHT22;9256;52.236;5.712;2023-03-26T01:44:15;6.80;99.90
18260;DHT22;9256;52.236;5.712;2023-03-26T01:46:46;6.80;99.90
18260;DHT22;9256;52.236;5.712;2023-03-26T01:49:14;6.90;99.90
18260;DHT22;9256;52.236;5.712;2023-03-26T01:51:43;6.90;99.90
18260;DHT22;9256;52.236;5.712;2023-03-26T01:54:13;6.90;99.90
18260;DHT22;9256;52.236;5.712;2023-03-26T01:56:52;7.00;99.90
18260;DHT22;9256;52.236;5.712;2023-03-26T01:59:43;7.00;99.90
18260;DHT22;9256;52.236;5.712;2023-03-26T02:02:16;6.90;99.90
18260;DHT22;9256;52.236;5.712;2023-03-26T02:04:50;6.90;99.90
18260;DHT22;9256;52.236;5.712;2023-03-26T02:07:23;7.00;99.90
18260;DHT22;9256;52.236;5.712;2023-03-26T02:09:57;7.10;99.90
18260;DHT22;9256;52.236;5.712;2023-03-26T02:12:26;7.10;99.90
18260;DHT22;9256;52.236;5.712;2023-03-26T02:14:54;7.10;99.90
18260;DHT22;9256;52.236;5.712;2023-03-26T02:17:21;7.10;99.90
18260;DHT22;9256;52.236;5.712;2023-03-26T02:19:49;7.10;99.90
18260;DHT22;9256;52.236;5.712;2023-03-26T02:22:16;7.20;99.90
18260;DHT22;9256;52.236;5.712;2023-03-26T02:24:43;7.10;99.90
18260;DHT22;9256;52.236;5.712;2023-03-26T02:27:10;7.20;99.90
18260;DHT22;9256;52.236;5.712;2023-03-26T02:29:39;7.20;99.90
18260;DHT22;9256;52.236;5.712;2023-03-26T02:32:08;7.20;99.90
18260;DHT22;9256;52.236;5.712;2023-03-26T02:34:37;7.20;99.90
18260;DHT22;9256;52.236;5.712;2023-03-26T02:37:04;7.20;99.90
18260;DHT22;9256;52.236;5.712;2023-03-26T02:39:32;7.20;99.90
18260;DHT22;9256;52.236;5.712;2023-03-26T02:41:59;7.20;99.90
18260;DHT22;9256;52.236;5.712;2023-03-26T02:44:26;7.20;99.90
18260;DHT22;9256;52.236;5.712;2023-03-26T02:46:54;7.10;99.90
18260;DHT22;9256;52.236;5.712;2023-03-26T02:49:21;7.10;99.90
18260;DHT22;9256;52.236;5.712;2023-03-26T02:51:48;7.10;99.90
18260;DHT22;9256;52.236;5.712;2023-03-26T02:54:17;7.10;99.90
18260;DHT22;9256;52.236;5.712;2023-03-26T02:56:44;7.10;99.90
18260;DHT22;9256;52.236;5.712;2023-03-26T02:59:12;7.10;99.90
18260;DHT22;9256;52.236;5.712;2023-03-26T03:01:39;7.00;99.90
18260;DHT22;9256;52.236;5.712;2023-03-26T03:04:09;7.10;99.90
18260;DHT22;9256;52.236;5.712;2023-03-26T03:06:36;7.10;99.90
18260;DHT22;9256;52.236;5.712;2023-03-26T03:09:05;7.10;99.90
18260;DHT22;9256;52.236;5.712;2023-03-26T03:11:33;7.20;99.90
18260;DHT22;9256;52.236;5.712;2023-03-26T03:14:01;7.20;99.90
18260;DHT22;9256;52.236;5.712;2023-03-26T03:16:28;7.10;99.90
18260;DHT22;9256;52.236;5.712;2023-03-26T03:18:55;7.10;99.90
18260;DHT22;9256;52.236;5.712;2023-03-26T03:21:25;7.20;99.90
18260;DHT22;9256;52.236;5.712;2023-03-26T03:23:52;7.10;99.90
18260;DHT22;9256;52.236;5.712;2023-03-26T03:26:21;7.10;99.90
18260;DHT22;9256;52.236;5.712;2023-03-26T03:28:48;7.10;99.90
18260;DHT22;9256;52.236;5.712;2023-03-26T03:31:16;7.10;99.90
18260;DHT22;9256;52.236;5.712;2023-03-26T03:33:43;7.10;99.90
18260;DHT22;9256;52.236;5.712;2023-03-26T03:36:11;7.20;99.90
18260;DHT22;9256;52.236;5.712;2023-03-26T03:38:40;7.20;99.90
18260;DHT22;9256;52.236;5.712;2023-03-26T03:41:07;7.20;99.90
18260;DHT22;9256;52.236;5.712;2023-03-26T03:43:34;7.10;99.90
18260;DHT22;9256;52.236;5.712;2023-03-26T03:46:02;7.10;99.90
18260;DHT22;9256;52.236;5.712;2023-03-26T03:48:29;7.10;99.90
18260;DHT22;9256;52.236;5.712;2023-03-26T03:50:56;7.20;99.90
18260;DHT22;9256;52.236;5.712;2023-03-26T03:53:23;7.20;99.90
18260;DHT22;9256;52.236;5.712;2023-03-26T03:55:53;7.20;99.90
18260;DHT22;9256;52.236;5.712;2023-03-26T03:58:21;7.30;99.90
18260;DHT22;9256;52.236;5.712;2023-03-26T04:00:48;7.30;99.90
18260;DHT22;9256;52.236;5.712;2023-03-26T04:03:16;7.40;99.90
18260;DHT22;9256;52.236;5.712;2023-03-26T04:05:44;7.40;99.90
18260;DHT22;9256;52.236;5.712;2023-03-26T04:08:14;7.40;99.90
18260;DHT22;9256;52.236;5.712;2023-03-26T04:10:42;7.50;99.90
18260;DHT22;9256;52.236;5.712;2023-03-26T04:13:12;7.50;99.90
18260;DHT22;9256;52.236;5.712;2023-03-26T04:15:40;7.60;99.90
18260;DHT22;9256;52.236;5.712;2023-03-26T04:18:07;7.50;99.90
18260;DHT22;9256;52.236;5.712;2023-03-26T04:20:36;7.60;99.90
18260;DHT22;9256;52.236;5.712;2023-03-26T04:23:07;7.60;99.90
18260;DHT22;9256;52.236;5.712;2023-03-26T04:25:39;7.60;99.90
18260;DHT22;9256;52.236;5.712;2023-03-26T04:28:06;7.60;99.90
18260;DHT22;9256;52.236;5.712;2023-03-26T04:30:35;7.60;99.90
18260;DHT22;9256;52.236;5.712;2023-03-26T04:33:03;7.70;99.90
18260;DHT22;9256;52.236;5.712;2023-03-26T04:35:31;7.60;99.90
18260;DHT22;9256;52.236;5.712;2023-03-26T04:38:00;7.70;99.90
18260;DHT22;9256;52.236;5.712;2023-03-26T04:40:31;7.60;99.90
18260;DHT22;9256;52.236;5.712;2023-03-26T04:42:59;7.60;99.90
18260;DHT22;9256;52.236;5.712;2023-03-26T04:45:27;7.70;99.90
18260;DHT22;9256;52.236;5.712;2023-03-26T04:47:56;7.60;99.90
18260;DHT22;9256;52.236;5.712;2023-03-26T04:50:24;7.60;99.90
18260;DHT22;9256;52.236;5.712;2023-03-26T04:52:52;7.50;99.90
18260;DHT22;9256;52.236;5.712;2023-03-26T04:55:24;7.50;99.90
18260;DHT22;9256;52.236;5.712;2023-03-26T04:57:54;7.50;99.90
18260;DHT22;9256;52.236;5.712;2023-03-26T05:00:22;7.50;99.90
18260;DHT22;9256;52.236;5.712;2023-03-26T05:02:50;7.40;99.90
18260;DHT22;9256;52.236;5.712;2023-03-26T05:05:20;7.40;99.90
18260;DHT22;9256;52.236;5.712;2023-03-26T05:07:47;7.40;99.90
18260;DHT22;9256;52.236;5.712;2023-03-26T05:10:15;7.40;99.90
18260;DHT22;9256;52.236;5.712;2023-03-26T05:12:44;7.40;99.90
18260;DHT22;9256;52.236;5.712;2023-03-26T05:15:13;7.30;99.90
18260;DHT22;9256;52.236;5.712;2023-03-26T05:17:40;7.40;99.90
18260;DHT22;9256;52.236;5.712;2023-03-26T05:20:15;7.30;99.90
18260;DHT22;9256;52.236;5.712;2023-03-26T05:22:44;7.30;99.90
18260;DHT22;9256;52.236;5.712;2023-03-26T05:25:11;7.40;99.90
18260;DHT22;9256;52.236;5.712;2023-03-26T05:27:38;7.40;99.90
18260;DHT22;9256;52.236;5.712;2023-03-26T05:30:06;7.40;99.90
18260;DHT22;9256;52.236;5.712;2023-03-26T05:32:34;7.50;99.90
18260;DHT22;9256;52.236;5.712;2023-03-26T05:35:02;7.40;99.90
18260;DHT22;9256;52.236;5.712;2023-03-26T05:37:29;7.50;99.90
18260;DHT22;9256;52.236;5.712;2023-03-26T05:39:58;7.40;99.90
18260;DHT22;9256;52.236;5.712;2023-03-26T05:42:26;7.40;99.90
18260;DHT22;9256;52.236;5.712;2023-03-26T05:44:53;7.50;99.90
18260;DHT22;9256;52.236;5.712;2023-03-26T05:47:19;7.50;99.90
18260;DHT22;9256;52.236;5.712;2023-03-26T05:49:46;7.50;99.90
18260;DHT22;9256;52.236;5.712;2023-03-26T05:52:13;7.40;99.90
18260;DHT22;9256;52.236;5.712;2023-03-26T05:54:43;7.40;99.90
18260;DHT22;9256;52.236;5.712;2023-03-26T05:57:11;7.50;99.90
18260;DHT22;9256;52.236;5.712;2023-03-26T05:59:38;7.50;99.90
18260;DHT22;9256;52.236;5.712;2023-03-26T06:02:06;7.50;99.90
18260;DHT22;9256;52.236;5.712;2023-03-26T06:04:33;7.50;99.90
18260;DHT22;9256;52.236;5.712;2023-03-26T06:07:00;7.50;99.90
18260;DHT22;9256;52.236;5.712;2023-03-26T06:09:28;7.50;99.90
18260;DHT22;9256;52.236;5.712;2023-03-26T06:11:55;7.50;99.90
18260;DHT22;9256;52.236;5.712;2023-03-26T06:14:23;7.50;99.90
18260;DHT22;9256;52.236;5.712;2023-03-26T06:16:50;7.50;99.90
18260;DHT22;9256;52.236;5.712;2023-03-26T06:19:17;7.60;99.90
18260;DHT22;9256;52.236;5.712;2023-03-26T06:21:44;7.50;99.90
18260;DHT22;9256;52.236;5.712;2023-03-26T06:24:11;7.50;99.90
18260;DHT22;9256;52.236;5.712;2023-03-26T06:26:38;7.50;99.90
18260;DHT22;9256;52.236;5.712;2023-03-26T06:29:05;7.60;99.90
18260;DHT22;9256;52.236;5.712;2023-03-26T06:31:33;7.60;99.90
18260;DHT22;9256;52.236;5.712;2023-03-26T06:34:00;7.60;99.90
18260;DHT22;9256;52.236;5.712;2023-03-26T06:36:27;7.60;99.90
18260;DHT22;9256;52.236;5.712;2023-03-26T06:38:54;7.60;99.90
18260;DHT22;9256;52.236;5.712;2023-03-26T06:41:21;7.60;99.90
18260;DHT22;9256;52.236;5.712;2023-03-26T06:43:48;7.60;99.90
18260;DHT22;9256;52.236;5.712;2023-03-26T06:46:15;7.60;99.90
18260;DHT22;9256;52.236;5.712;2023-03-26T06:48:43;7.60;99.90
18260;DHT22;9256;52.236;5.712;2023-03-26T06:51:11;7.60;99.90
18260;DHT22;9256;52.236;5.712;2023-03-26T06:53:38;7.70;99.90
18260;DHT22;9256;52.236;5.712;2023-03-26T06:56:05;7.70;99.90
18260;DHT22;9256;52.236;5.712;2023-03-26T06:58:32;7.70;99.90
18260;DHT22;9256;52.236;5.712;2023-03-26T07:00:59;7.80;99.90
18260;DHT22;9256;52.236;5.712;2023-03-26T07:03:26;7.70;99.90
18260;DHT22;9256;52.236;5.712;2023-03-26T07:05:55;7.80;99.90
18260;DHT22;9256;52.236;5.712;2023-03-26T07:08:22;7.80;99.90
18260;DHT22;9256;52.236;5.712;2023-03-26T07:10:49;7.80;99.90
18260;DHT22;9256;52.236;5.712;2023-03-26T07:13:16;7.80;99.90
18260;DHT22;9256;52.236;5.712;2023-03-26T07:15:43;7.80;99.90
18260;DHT22;9256;52.236;5.712;2023-03-26T07:18:09;7.80;99.90
18260;DHT22;9256;52.236;5.712;2023-03-26T07:20:37;7.80;99.90
18260;DHT22;9256;52.236;5.712;2023-03-26T07:23:06;7.90;99.90
18260;DHT22;9256;52.236;5.712;2023-03-26T07:25:33;7.90;99.90
18260;DHT22;9256;52.236;5.712;2023-03-26T07:28:06;7.80;99.90
18260;DHT22;9256;52.236;5.712;2023-03-26T07:30:45;7.80;99.90
18260;DHT22;9256;52.236;5.712;2023-03-26T07:33:20;7.80;99.90
18260;DHT22;9256;52.236;5.712;2023-03-26T07:35:52;7.70;99.90
18260;DHT22;9256;52.236;5.712;2023-03-26T07:38:35;7.70;99.90
18260;DHT22;9256;52.236;5.712;2023-03-26T07:41:07;7.70;99.90
18260;DHT22;9256;52.236;5.712;2023-03-26T07:43:48;7.70;99.90
18260;DHT22;9256;52.236;5.712;2023-03-26T07:46:21;7.80;99.90
18260;DHT22;9256;52.236;5.712;2023-03-26T07:48:51;7.70;99.90
18260;DHT22;9256;52.236;5.712;2023-03-26T07:51:19;7.80;99.90
18260;DHT22;9256;52.236;5.712;2023-03-26T07:53:48;7.80;99.90
18260;DHT22;9256;52.236;5.712;2023-03-26T07:56:18;7.70;99.90
18260;DHT22;9256;52.236;5.712;2023-03-26T07:58:58;7.70;99.90
18260;DHT22;9256;52.236;5.712;2023-03-26T08:01:41;7.80;99.90
18260;DHT22;9256;52.236;5.712;2023-03-26T08:04:31;7.90;99.90
18260;DHT22;9256;52.236;5.712;2023-03-26T08:07:07;7.80;99.90
18260;DHT22;9256;52.236;5.712;2023-03-26T08:09:44;7.80;99.90
18260;DHT22;9256;52.236;5.712;2023-03-26T08:12:20;7.90;99.90
18260;DHT22;9256;52.236;5.712;2023-03-26T08:14:54;7.80;99.90
18260;DHT22;9256;52.236;5.712;2023-03-26T08:17:29;7.90;99.90
18260;DHT22;9256;52.236;5.712;2023-03-26T08:20:03;7.80;99.90
18260;DHT22;9256;52.236;5.712;2023-03-26T08:22:36;7.90;99.90
18260;DHT22;9256;52.236;5.712;2023-03-26T08:25:25;7.90;99.90
18260;DHT22;9256;52.236;5.712;2023-03-26T08:28:04;7.90;99.90
18260;DHT22;9256;52.236;5.712;2023-03-26T08:30:33;7.90;99.90
18260;DHT22;9256;52.236;5.712;2023-03-26T08:33:11;7.90;99.90
18260;DHT22;9256;52.236;5.712;2023-03-26T08:35:38;7.90;99.90
18260;DHT22;9256;52.236;5.712;2023-03-26T08:38:07;7.90;99.90
18260;DHT22;9256;52.236;5.712;2023-03-26T08:41:02;7.90;99.90
18260;DHT22;9256;52.236;5.712;2023-03-26T08:47:01;7.90;99.90
18260;DHT22;9256;52.236;5.712;2023-03-26T08:50:20;8.00;99.90
18260;DHT22;9256;52.236;5.712;2023-03-26T08:55:56;8.00;99.90
18260;DHT22;9256;52.236;5.712;2023-03-26T09:11:22;7.90;99.90
18260;DHT22;9256;52.236;5.712;2023-03-26T09:14:09;7.90;99.90
18260;DHT22;9256;52.236;5.712;2023-03-26T09:17:07;7.90;99.90
18260;DHT22;9256;52.236;5.712;2023-03-26T09:23:07;8.00;99.90
18260;DHT22;9256;52.236;5.712;2023-03-26T09:26:10;7.80;99.90
18260;DHT22;9256;52.236;5.712;2023-03-26T09:32:21;7.70;99.90
18260;DHT22;9256;52.236;5.712;2023-03-26T09:35:12;7.70;99.90
18260;DHT22;9256;52.236;5.712;2023-03-26T09:37:53;7.70;99.90
18260;DHT22;9256;52.236;5.712;2023-03-26T09:40:29;7.70;99.90
18260;DHT22;9256;52.236;5.712;2023-03-26T09:43:15;7.70;99.90
18260;DHT22;9256;52.236;5.712;2023-03-26T09:45:58;7.70;99.90
18260;DHT22;9256;52.236;5.712;2023-03-26T09:51:38;7.80;99.90
18260;DHT22;9256;52.236;5.712;2023-03-26T09:57:21;7.80;99.90
18260;DHT22;9256;52.236;5.712;2023-03-26T10:00:05;7.80;99.90
18260;DHT22;9256;52.236;5.712;2023-03-26T10:02:52;7.70;99.90
18260;DHT22;9256;52.236;5.712;2023-03-26T10:05:31;7.70;99.90
18260;DHT22;9256;52.236;5.712;2023-03-26T10:08:17;7.70;99.90
18260;DHT22;9256;52.236;5.712;2023-03-26T10:10:51;7.70;99.90
18260;DHT22;9256;52.236;5.712;2023-03-26T10:13:26;7.80;99.90
18260;DHT22;9256;52.236;5.712;2023-03-26T10:16:08;7.80;99.90
18260;DHT22;9256;52.236;5.712;2023-03-26T10:18:48;7.80;99.90
18260;DHT22;9256;52.236;5.712;2023-03-26T10:21:24;7.80;99.90
18260;DHT22;9256;52.236;5.712;2023-03-26T10:24:06;7.70;99.90
18260;DHT22;9256;52.236;5.712;2023-03-26T10:26:58;7.80;99.90
18260;DHT22;9256;52.236;5.712;2023-03-26T10:29:47;7.80;99.90
18260;DHT22;9256;52.236;5.712;2023-03-26T10:32:23;7.70;99.90
18260;DHT22;9256;52.236;5.712;2023-03-26T10:35:17;7.80;99.90
18260;DHT22;9256;52.236;5.712;2023-03-26T10:37:55;7.70;99.90
18260;DHT22;9256;52.236;5.712;2023-03-26T10:40:29;7.70;99.90
18260;DHT22;9256;52.236;5.712;2023-03-26T10:43:27;7.70;99.90
18260;DHT22;9256;52.236;5.712;2023-03-26T10:46:07;7.70;99.90
18260;DHT22;9256;52.236;5.712;2023-03-26T10:48:46;7.80;99.90
18260;DHT22;9256;52.236;5.712;2023-03-26T10:51:31;7.80;99.90
18260;DHT22;9256;52.236;5.712;2023-03-26T10:54:07;7.80;99.90
18260;DHT22;9256;52.236;5.712;2023-03-26T10:56:40;7.80;99.90
18260;DHT22;9256;52.236;5.712;2023-03-26T10:59:09;7.80;99.90
18260;DHT22;9256;52.236;5.712;2023-03-26T11:01:42;8.00;99.90
18260;DHT22;9256;52.236;5.712;2023-03-26T11:04:20;8.00;99.90
18260;DHT22;9256;52.236;5.712;2023-03-26T11:06:56;8.00;99.90
18260;DHT22;9256;52.236;5.712;2023-03-26T11:09:33;8.00;99.90
18260;DHT22;9256;52.236;5.712;2023-03-26T11:12:11;7.90;99.90
18260;DHT22;9256;52.236;5.712;2023-03-26T11:14:45;7.80;99.90
18260;DHT22;9256;52.236;5.712;2023-03-26T11:17:23;7.80;99.90
18260;DHT22;9256;52.236;5.712;2023-03-26T11:20:00;7.80;99.90
18260;DHT22;9256;52.236;5.712;2023-03-26T11:22:37;7.90;99.90
18260;DHT22;9256;52.236;5.712;2023-03-26T11:25:28;7.90;99.90
18260;DHT22;9256;52.236;5.712;2023-03-26T11:28:07;7.90;99.90
18260;DHT22;9256;52.236;5.712;2023-03-26T11:30:42;7.90;99.90
18260;DHT22;9256;52.236;5.712;2023-03-26T11:33:14;8.10;99.90
18260;DHT22;9256;52.236;5.712;2023-03-26T11:35:45;8.10;99.90
18260;DHT22;9256;52.236;5.712;2023-03-26T11:38:17;8.10;99.90
18260;DHT22;9256;52.236;5.712;2023-03-26T11:40:50;8.30;99.90
18260;DHT22;9256;52.236;5.712;2023-03-26T11:43:23;8.30;99.90
18260;DHT22;9256;52.236;5.712;2023-03-26T11:45:51;8.50;99.90
18260;DHT22;9256;52.236;5.712;2023-03-26T11:48:24;8.60;99.90
18260;DHT22;9256;52.236;5.712;2023-03-26T11:50:56;8.60;99.90
18260;DHT22;9256;52.236;5.712;2023-03-26T11:53:30;8.70;99.90
18260;DHT22;9256;52.236;5.712;2023-03-26T11:56:02;8.70;99.90
18260;DHT22;9256;52.236;5.712;2023-03-26T11:58:34;8.70;99.90
18260;DHT22;9256;52.236;5.712;2023-03-26T12:01:11;8.90;99.90
18260;DHT22;9256;52.236;5.712;2023-03-26T12:03:39;9.10;99.90
18260;DHT22;9256;52.236;5.712;2023-03-26T12:06:21;9.60;99.90
18260;DHT22;9256;52.236;5.712;2023-03-26T12:08:51;9.90;99.90
18260;DHT22;9256;52.236;5.712;2023-03-26T12:11:21;10.00;99.90
18260;DHT22;9256;52.236;5.712;2023-03-26T12:13:53;9.90;99.90
18260;DHT22;9256;52.236;5.712;2023-03-26T12:16:21;9.90;99.90
18260;DHT22;9256;52.236;5.712;2023-03-26T12:18:58;9.90;99.90
18260;DHT22;9256;52.236;5.712;2023-03-26T12:21:25;10.10;99.90
18260;DHT22;9256;52.236;5.712;2023-03-26T12:23:58;10.40;99.90
18260;DHT22;9256;52.236;5.712;2023-03-26T12:26:34;10.70;99.90
18260;DHT22;9256;52.236;5.712;2023-03-26T12:29:06;10.70;99.90
18260;DHT22;9256;52.236;5.712;2023-03-26T12:31:44;10.80;99.90
18260;DHT22;9256;52.236;5.712;2023-03-26T12:34:15;11.00;99.90
18260;DHT22;9256;52.236;5.712;2023-03-26T12:36:48;10.40;99.90
18260;DHT22;9256;52.236;5.712;2023-03-26T12:39:31;10.30;99.90
18260;DHT22;9256;52.236;5.712;2023-03-26T12:42:00;10.00;99.90
18260;DHT22;9256;52.236;5.712;2023-03-26T12:44:29;10.00;99.90
18260;DHT22;9256;52.236;5.712;2023-03-26T12:47:16;9.90;99.90
18260;DHT22;9256;52.236;5.712;2023-03-26T12:49:44;9.80;99.90
18260;DHT22;9256;52.236;5.712;2023-03-26T12:52:27;9.70;99.90
18260;DHT22;9256;52.236;5.712;2023-03-26T12:55:05;9.60;99.90
18260;DHT22;9256;52.236;5.712;2023-03-26T12:57:36;9.60;99.90
18260;DHT22;9256;52.236;5.712;2023-03-26T13:00:30;9.60;99.90
18260;DHT22;9256;52.236;5.712;2023-03-26T13:03:09;9.70;99.90
18260;DHT22;9256;52.236;5.712;2023-03-26T13:05:51;9.60;99.90
18260;DHT22;9256;52.236;5.712;2023-03-26T13:11:16;10.00;99.90
18260;DHT22;9256;52.236;5.712;2023-03-26T13:13:57;10.30;99.90
18260;DHT22;9256;52.236;5.712;2023-03-26T13:16:35;10.00;99.90
18260;DHT22;9256;52.236;5.712;2023-03-26T13:19:07;9.90;99.90
18260;DHT22;9256;52.236;5.712;2023-03-26T13:21:43;9.80;99.90
18260;DHT22;9256;52.236;5.712;2023-03-26T13:24:22;9.70;99.90
18260;DHT22;9256;52.236;5.712;2023-03-26T13:27:02;9.70;99.90
18260;DHT22;9256;52.236;5.712;2023-03-26T13:29:38;9.60;99.90
18260;DHT22;9256;52.236;5.712;2023-03-26T13:32:13;10.00;99.90
18260;DHT22;9256;52.236;5.712;2023-03-26T13:34:54;10.00;99.90
18260;DHT22;9256;52.236;5.712;2023-03-26T13:37:26;10.10;99.90
18260;DHT22;9256;52.236;5.712;2023-03-26T13:40:02;9.80;99.90
18260;DHT22;9256;52.236;5.712;2023-03-26T13:42:47;9.80;99.90
18260;DHT22;9256;52.236;5.712;2023-03-26T13:45:39;9.80;99.90
18260;DHT22;9256;52.236;5.712;2023-03-26T13:48:12;9.90;99.90
18260;DHT22;9256;52.236;5.712;2023-03-26T13:50:41;9.70;99.90
18260;DHT22;9256;52.236;5.712;2023-03-26T13:53:13;9.60;99.90
18260;DHT22;9256;52.236;5.712;2023-03-26T13:55:46;9.60;99.90
18260;DHT22;9256;52.236;5.712;2023-03-26T13:58:21;9.60;99.90
18260;DHT22;9256;52.236;5.712;2023-03-26T14:00:53;9.60;99.90
18260;DHT22;9256;52.236;5.712;2023-03-26T14:03:28;9.40;99.90
18260;DHT22;9256;52.236;5.712;2023-03-26T14:06:03;9.30;99.90
18260;DHT22;9256;52.236;5.712;2023-03-26T14:08:36;9.20;99.90
18260;DHT22;9256;52.236;5.712;2023-03-26T14:11:08;9.20;99.90
18260;DHT22;9256;52.236;5.712;2023-03-26T14:13:42;9.30;99.90
18260;DHT22;9256;52.236;5.712;2023-03-26T14:16:15;9.30;99.90
18260;DHT22;9256;52.236;5.712;2023-03-26T14:18:46;9.20;99.90
18260;DHT22;9256;52.236;5.712;2023-03-26T14:21:32;9.20;99.90
18260;DHT22;9256;52.236;5.712;2023-03-26T14:24:10;9.20;99.90
18260;DHT22;9256;52.236;5.712;2023-03-26T14:27:03;8.90;99.90
18260;DHT22;9256;52.236;5.712;2023-03-26T14:29:50;9.00;99.90
18260;DHT22;9256;52.236;5.712;2023-03-26T14:32:29;8.90;99.90
18260;DHT22;9256;52.236;5.712;2023-03-26T14:35:10;8.80;99.90
18260;DHT22;9256;52.236;5.712;2023-03-26T14:38:05;8.90;99.90
18260;DHT22;9256;52.236;5.712;2023-03-26T14:40:50;8.90;99.90
18260;DHT22;9256;52.236;5.712;2023-03-26T14:43:57;8.80;99.90
18260;DHT22;9256;52.236;5.712;2023-03-26T14:46:40;8.60;99.90
18260;DHT22;9256;52.236;5.712;2023-03-26T14:49:28;8.50;99.90
18260;DHT22;9256;52.236;5.712;2023-03-26T14:52:06;8.60;99.90
18260;DHT22;9256;52.236;5.712;2023-03-26T14:54:37;8.60;99.90
18260;DHT22;9256;52.236;5.712;2023-03-26T14:57:26;8.60;99.90
18260;DHT22;9256;52.236;5.712;2023-03-26T15:06:31;8.70;99.90
18260;DHT22;9256;52.236;5.712;2023-03-26T15:12:11;8.40;99.90
18260;DHT22;9256;52.236;5.712;2023-03-26T15:18:29;8.20;99.90
18260;DHT22;9256;52.236;5.712;2023-03-26T15:24:15;8.20;99.90
18260;DHT22;9256;52.236;5.712;2023-03-26T15:39:56;7.90;99.90
18260;DHT22;9256;52.236;5.712;2023-03-26T15:42:45;7.80;99.90
18260;DHT22;9256;52.236;5.712;2023-03-26T15:45:32;7.90;99.90
18260;DHT22;9256;52.236;5.712;2023-03-26T15:48:32;7.80;99.90
18260;DHT22;9256;52.236;5.712;2023-03-26T15:51:14;7.70;99.90
18260;DHT22;9256;52.236;5.712;2023-03-26T15:53:48;7.70;99.90
18260;DHT22;9256;52.236;5.712;2023-03-26T15:56:27;7.80;99.90
18260;DHT22;9256;52.236;5.712;2023-03-26T15:59:02;7.80;99.90
18260;DHT22;9256;52.236;5.712;2023-03-26T16:01:42;7.90;99.90
18260;DHT22;9256;52.236;5.712;2023-03-26T16:04:20;7.80;99.90
18260;DHT22;9256;52.236;5.712;2023-03-26T16:06:54;7.60;99.90
18260;DHT22;9256;52.236;5.712;2023-03-26T16:09:46;7.80;99.90
18260;DHT22;9256;52.236;5.712;2023-03-26T16:12:33;7.80;99.90
18260;DHT22;9256;52.236;5.712;2023-03-26T16:15:22;7.70;99.90
18260;DHT22;9256;52.236;5.712;2023-03-26T16:18:18;7.70;99.90
18260;DHT22;9256;52.236;5.712;2023-03-26T16:20:51;7.70;99.90
18260;DHT22;9256;52.236;5.712;2023-03-26T16:23:24;7.70;99.90
18260;DHT22;9256;52.236;5.712;2023-03-26T16:25:57;7.60;99.90
18260;DHT22;9256;52.236;5.712;2023-03-26T16:28:32;7.60;99.90
18260;DHT22;9256;52.236;5.712;2023-03-26T16:31:19;7.60;99.90
18260;DHT22;9256;52.236;5.712;2023-03-26T16:33:52;7.60;99.90
18260;DHT22;9256;52.236;5.712;2023-03-26T16:36:28;7.60;99.90
18260;DHT22;9256;52.236;5.712;2023-03-26T16:39:18;7.40;99.90
18260;DHT22;9256;52.236;5.712;2023-03-26T16:42:01;7.40;99.90
18260;DHT22;9256;52.236;5.712;2023-03-26T16:44:39;7.30;99.90
18260;DHT22;9256;52.236;5.712;2023-03-26T16:47:17;7.30;99.90
18260;DHT22;9256;52.236;5.712;2023-03-26T16:49:53;7.20;99.90
18260;DHT22;9256;52.236;5.712;2023-03-26T16:52:34;7.20;99.90
18260;DHT22;9256;52.236;5.712;2023-03-26T16:55:17;7.20;99.90
18260;DHT22;9256;52.236;5.712;2023-03-26T16:57:52;7.20;99.90
18260;DHT22;9256;52.236;5.712;2023-03-26T17:00:39;7.10;99.90
18260;DHT22;9256;52.236;5.712;2023-03-26T17:03:17;7.20;99.90
18260;DHT22;9256;52.236;5.712;2023-03-26T17:06:01;7.10;99.90
18260;DHT22;9256;52.236;5.712;2023-03-26T17:08:36;7.00;99.90
18260;DHT22;9256;52.236;5.712;2023-03-26T17:11:18;7.20;99.90
18260;DHT22;9256;52.236;5.712;2023-03-26T17:13:55;7.10;99.90
18260;DHT22;9256;52.236;5.712;2023-03-26T17:16:33;6.90;99.90
18260;DHT22;9256;52.236;5.712;2023-03-26T17:19:07;6.90;99.90
18260;DHT22;9256;52.236;5.712;2023-03-26T17:21:45;6.90;99.90
18260;DHT22;9256;52.236;5.712;2023-03-26T17:24:25;6.90;99.90
18260;DHT22;9256;52.236;5.712;2023-03-26T17:26:58;6.70;99.90
18260;DHT22;9256;52.236;5.712;2023-03-26T17:29:47;6.70;99.90
18260;DHT22;9256;52.236;5.712;2023-03-26T17:32:18;6.70;99.90
18260;DHT22;9256;52.236;5.712;2023-03-26T17:34:58;6.60;99.90
18260;DHT22;9256;52.236;5.712;2023-03-26T17:37:34;6.50;99.90
18260;DHT22;9256;52.236;5.712;2023-03-26T17:40:46;6.40;99.90
18260;DHT22;9256;52.236;5.712;2023-03-26T17:43:42;6.40;99.90
18260;DHT22;9256;52.236;5.712;2023-03-26T17:46:25;6.30;99.90
18260;DHT22;9256;52.236;5.712;2023-03-26T17:48:58;6.30;99.90
18260;DHT22;9256;52.236;5.712;2023-03-26T17:51:39;6.30;99.90